Huvudsida
METAR-TAF:

METAR-TAF

Flygplatser :

Genua, Italien

latitud: 44-25N, longitud: 008-51E, höjd: 2 m

Aktuellt väderrapport

Denna rapport gjordes för 48 minuter sedan, klockan 07:50 UTC
Vind 8 kt från nord/nordost, varierande mellan nord och nordost
Temperatur 11°C
Fuktighet 58%
Tryck 1030 hPa
Sikt 10 km eller mer
Inga moln under 1 500 m eller inga cumulonimbus

METAR: LIMJ 220750Z 03008KT 350V050 CAVOK 11/03 Q1030

Tid: 09:38 (08:38 UTC)

Väderprognos

Denna rapport gjordes för 3 timmar och 38 minuter sedan, klockan 05:00 UTC
Prognos gäller från 22 kl. 06 UTC till 23 kl. 06 UTC
Vind 6 kt från nord/nordost
Sikt 10 km eller mer
Inga moln under 1 500 m eller inga cumulonimbus

TAF: LIMJ 220500Z 2206/2306 03006KT CAVOK

Aktuella väderrapporter och prognoser från 4000 flygplatser (METAR- och TAF-rapporter).

De tillgängliga stationerna syns som gula och röda prickar på kartan.

För musen över prickarna för att se namnen på stationerna.

Klicka sedan för att få väderrapporter och prognoser.

För att ändra kartan: Klicka på de gröna knapparna med ett svart kors på för att zooma in; den gröna knappen med ett streck på för att zooma ut; eller på de gröna pilarna för angränsande kartor.


METAR-TAF: